createdAt,value
2017-10-03T00:01:14.117Z,59.58
2017-10-03T00:03:43.056Z,55.08
2017-10-03T00:06:12.671Z,56.50
2017-10-03T00:08:42.716Z,57.83
2017-10-03T00:11:11.760Z,58.22
2017-10-03T00:13:41.125Z,54.83
2017-10-03T00:16:10.183Z,52.57
2017-10-03T00:18:40.007Z,54.08
2017-10-03T00:21:08.969Z,53.87
2017-10-03T00:23:38.083Z,51.03
2017-10-03T00:26:07.993Z,42.03
2017-10-03T00:28:37.762Z,51.58
2017-10-03T00:31:07.577Z,49.53
2017-10-03T00:33:36.579Z,51.80
2017-10-03T00:36:05.714Z,60.87
2017-10-03T00:38:34.779Z,55.37
2017-10-03T00:41:04.601Z,51.83
2017-10-03T00:43:34.793Z,50.58
2017-10-03T00:46:03.683Z,48.53
2017-10-03T00:48:32.579Z,53.70
2017-10-03T00:51:01.465Z,45.33
2017-10-03T00:53:30.396Z,52.45
2017-10-03T00:55:59.534Z,56.17
2017-10-03T00:58:28.707Z,50.90
2017-10-03T01:00:58.084Z,51.63
2017-10-03T01:03:27.129Z,49.67
2017-10-03T01:05:56.209Z,53.33
2017-10-03T01:08:25.251Z,56.72
2017-10-03T01:10:55.249Z,39.72
2017-10-03T01:13:24.181Z,52.00
2017-10-03T01:15:53.153Z,42.78
2017-10-03T01:18:22.849Z,53.55
2017-10-03T01:20:53.573Z,45.42
2017-10-03T01:23:22.392Z,44.75
2017-10-03T01:25:51.757Z,40.42
2017-10-03T01:28:20.593Z,49.90
2017-10-03T01:30:49.813Z,47.75
2017-10-03T01:33:20.911Z,48.78
2017-10-03T01:35:50.621Z,43.15
2017-10-03T01:38:19.767Z,48.30
2017-10-03T01:40:49.901Z,42.20
2017-10-03T01:43:18.771Z,46.23
2017-10-03T01:45:48.007Z,41.37
2017-10-03T01:48:17.873Z,40.60
2017-10-03T01:50:47.287Z,40.58
2017-10-03T01:53:16.369Z,39.23
2017-10-03T01:55:45.410Z,35.85
2017-10-03T01:58:14.888Z,36.53
2017-10-03T02:00:43.825Z,37.63
2017-10-03T02:03:13.717Z,33.33
2017-10-03T02:05:42.677Z,34.40
2017-10-03T02:08:11.620Z,36.78
2017-10-03T02:10:40.468Z,34.90
2017-10-03T02:13:09.434Z,29.42
2017-10-03T02:15:38.483Z,33.97
2017-10-03T02:18:08.126Z,33.83
2017-10-03T02:20:37.069Z,38.42
2017-10-03T02:23:06.670Z,31.27
2017-10-03T02:25:36.602Z,32.35
2017-10-03T02:28:05.615Z,29.33
2017-10-03T02:30:34.729Z,28.87
2017-10-03T02:33:03.785Z,35.50
2017-10-03T02:35:33.095Z,35.63
2017-10-03T02:38:02.041Z,37.80
2017-10-03T02:40:31.828Z,38.97
2017-10-03T02:43:00.723Z,37.53
2017-10-03T02:45:30.438Z,30.50
2017-10-03T02:47:59.329Z,33.10
2017-10-03T02:50:28.420Z,32.15
2017-10-03T02:52:58.148Z,30.85
2017-10-03T02:55:28.276Z,34.63
2017-10-03T02:57:58.234Z,42.42
2017-10-03T03:00:27.458Z,33.10
2017-10-03T03:02:56.653Z,35.78
2017-10-03T03:05:25.604Z,38.42
2017-10-03T03:07:54.470Z,41.97
2017-10-03T03:10:23.551Z,22.95
2017-10-03T03:12:53.587Z,29.70
2017-10-03T03:15:23.465Z,40.43
2017-10-03T03:17:52.497Z,36.35
2017-10-03T03:20:21.549Z,25.35
2017-10-03T03:22:50.634Z,32.23
2017-10-03T03:25:19.695Z,51.80
2017-10-03T03:27:48.713Z,51.50
2017-10-03T03:30:17.789Z,26.85
2017-10-03T03:32:46.647Z,33.53
2017-10-03T03:35:15.854Z,24.37
2017-10-03T03:37:44.903Z,37.47
2017-10-03T03:40:14.040Z,29.15
2017-10-03T03:42:43.045Z,28.55
2017-10-03T03:45:12.105Z,19.63
2017-10-03T03:47:42.149Z,23.42
2017-10-03T03:50:10.951Z,18.23
2017-10-03T03:52:39.838Z,21.60
2017-10-03T03:55:09.043Z,20.40
2017-10-03T03:57:38.020Z,24.25
2017-10-03T04:00:07.440Z,18.10
2017-10-03T04:02:36.457Z,21.92
2017-10-03T04:05:05.533Z,18.03
2017-10-03T04:07:34.345Z,17.87
2017-10-03T04:10:03.149Z,31.48
2017-10-03T04:12:32.697Z,24.60
2017-10-03T04:15:01.657Z,28.33
2017-10-03T04:17:31.144Z,17.27
2017-10-03T04:20:00.997Z,16.97
2017-10-03T04:22:29.848Z,14.25
2017-10-03T04:24:59.446Z,24.52
2017-10-03T04:27:28.262Z,16.62
2017-10-03T04:29:57.423Z,26.47
2017-10-03T04:32:26.417Z,32.03
2017-10-03T04:34:55.368Z,33.35
2017-10-03T04:37:24.460Z,33.10
2017-10-03T04:39:53.431Z,43.37
2017-10-03T04:42:22.772Z,35.40
2017-10-03T04:44:51.598Z,42.13
2017-10-03T04:47:21.218Z,34.30
2017-10-03T04:49:50.870Z,39.60
2017-10-03T04:52:20.191Z,46.10
2017-10-03T04:54:49.421Z,42.33
2017-10-03T04:57:18.941Z,43.50
2017-10-03T04:59:48.311Z,58.58
2017-10-03T05:02:18.393Z,46.00
2017-10-03T05:04:47.751Z,49.10
2017-10-03T05:07:16.919Z,46.13
2017-10-03T05:09:46.757Z,36.43
2017-10-03T05:12:16.622Z,41.88
2017-10-03T05:14:45.916Z,38.88
2017-10-03T05:17:15.178Z,50.65
2017-10-03T05:19:44.514Z,47.67
2017-10-03T05:22:13.777Z,46.20
2017-10-03T05:24:43.311Z,55.08
2017-10-03T05:27:12.203Z,44.97
2017-10-03T05:29:41.321Z,38.67
2017-10-03T05:32:11.025Z,43.73
2017-10-03T05:34:40.207Z,48.17
2017-10-03T05:37:09.127Z,43.05
2017-10-03T05:39:38.111Z,48.53
2017-10-03T05:42:07.951Z,41.37
2017-10-03T05:44:37.120Z,52.30
2017-10-03T05:47:06.888Z,44.27
2017-10-03T05:49:35.912Z,48.90
2017-10-03T05:52:04.974Z,50.50
2017-10-03T05:54:34.111Z,44.90
2017-10-03T05:57:03.837Z,44.33
2017-10-03T05:59:33.160Z,50.90
2017-10-03T06:02:03.128Z,36.40
2017-10-03T06:04:32.863Z,46.83
2017-10-03T06:07:01.725Z,49.03
2017-10-03T06:09:31.434Z,43.80
2017-10-03T06:12:00.399Z,49.03
2017-10-03T06:14:29.389Z,60.90
2017-10-03T06:16:58.475Z,48.25
2017-10-03T06:19:27.921Z,47.53
2017-10-03T06:21:57.721Z,40.53
2017-10-03T06:24:26.708Z,39.22
2017-10-03T06:26:55.522Z,34.23
2017-10-03T06:29:25.158Z,36.60
2017-10-03T06:31:54.018Z,38.65
2017-10-03T06:34:24.707Z,32.40
2017-10-03T06:36:53.757Z,30.50
2017-10-03T06:39:22.843Z,41.35
2017-10-03T06:41:51.790Z,41.65
2017-10-03T06:44:20.701Z,34.97
2017-10-03T06:46:50.325Z,40.17
2017-10-03T06:49:19.354Z,38.40
2017-10-03T06:51:48.415Z,33.42
2017-10-03T06:54:17.460Z,33.45
2017-10-03T06:56:46.417Z,43.72
2017-10-03T06:59:15.347Z,43.10
2017-10-03T07:01:44.373Z,39.38
2017-10-03T07:04:14.057Z,40.33
2017-10-03T07:06:42.956Z,40.08
2017-10-03T07:09:12.547Z,38.63
2017-10-03T07:11:41.359Z,45.50
2017-10-03T07:14:10.974Z,52.00
2017-10-03T07:16:40.738Z,47.55
2017-10-03T07:19:09.561Z,39.60
2017-10-03T07:21:39.689Z,46.67
2017-10-03T07:24:09.418Z,41.08
2017-10-03T07:26:38.209Z,44.58
2017-10-03T07:29:07.131Z,40.30
2017-10-03T07:31:35.929Z,43.90
2017-10-03T07:34:04.892Z,42.22
2017-10-03T07:36:33.752Z,47.40
2017-10-03T07:39:02.655Z,45.20
2017-10-03T07:41:31.592Z,42.33
2017-10-03T07:44:00.457Z,39.38
2017-10-03T07:46:29.646Z,43.05
2017-10-03T07:48:58.764Z,44.00
2017-10-03T07:51:28.230Z,39.55
2017-10-03T07:53:57.333Z,45.13
2017-10-03T07:56:26.998Z,54.58
2017-10-03T07:58:56.858Z,41.72
2017-10-03T08:01:25.949Z,48.58
2017-10-03T08:03:54.777Z,47.95
2017-10-03T08:06:27.923Z,42.70
2017-10-03T08:08:56.880Z,45.57
2017-10-03T08:11:26.645Z,35.35
2017-10-03T08:13:55.725Z,39.37
2017-10-03T08:16:25.458Z,37.92
2017-10-03T08:18:54.424Z,46.67
2017-10-03T08:21:23.867Z,39.65
2017-10-03T08:23:53.705Z,36.97
2017-10-03T08:26:23.015Z,32.08
2017-10-03T08:28:52.016Z,43.67
2017-10-03T08:31:21.068Z,44.33
2017-10-03T08:33:52.704Z,35.80
2017-10-03T08:36:24.212Z,34.53
2017-10-03T08:38:54.767Z,31.10
2017-10-03T08:41:27.804Z,42.50
2017-10-03T08:44:00.097Z,40.17
2017-10-03T08:46:29.942Z,33.33
2017-10-03T08:49:00.971Z,31.50
2017-10-03T08:51:32.029Z,26.77
2017-10-03T08:54:01.035Z,33.00
2017-10-03T08:56:30.873Z,35.63
2017-10-03T08:59:00.152Z,28.87
2017-10-03T09:01:29.883Z,27.58
2017-10-03T09:03:58.985Z,33.10
2017-10-03T09:06:28.051Z,31.27
2017-10-03T09:08:57.973Z,37.80
2017-10-03T09:11:28.666Z,34.40
2017-10-03T09:13:57.715Z,21.67
2017-10-03T09:16:27.874Z,31.60
2017-10-03T09:18:57.007Z,34.27
2017-10-03T09:21:26.846Z,24.85
2017-10-03T09:23:56.632Z,28.90
2017-10-03T09:26:26.551Z,21.42
2017-10-03T09:28:56.458Z,38.28
2017-10-03T09:31:26.466Z,27.50
2017-10-03T09:33:56.418Z,24.87
2017-10-03T09:36:25.451Z,21.93
2017-10-03T09:38:54.578Z,30.92
2017-10-03T09:41:24.728Z,28.12
2017-10-03T09:43:53.809Z,30.73
2017-10-03T09:46:22.816Z,27.20
2017-10-03T09:48:51.670Z,18.80
2017-10-03T09:51:21.350Z,23.20
2017-10-03T09:53:50.955Z,22.05
2017-10-03T09:56:20.044Z,17.87
2017-10-03T09:58:48.875Z,24.75
2017-10-03T10:01:17.755Z,28.57
2017-10-03T10:03:47.617Z,22.55
2017-10-03T10:06:16.923Z,21.83
2017-10-03T10:08:45.916Z,21.87
2017-10-03T10:11:14.924Z,20.45
2017-10-03T10:13:43.921Z,21.70
2017-10-03T10:16:12.930Z,27.40
2017-10-03T10:18:42.473Z,24.40
2017-10-03T10:21:11.377Z,27.77
2017-10-03T10:23:40.181Z,21.00
2017-10-03T10:26:09.033Z,19.10
2017-10-03T10:28:37.896Z,17.23
2017-10-03T10:31:07.501Z,28.20
2017-10-03T10:33:37.100Z,21.00
2017-10-03T10:36:06.890Z,23.02
2017-10-03T10:39:01.702Z,25.30
2017-10-03T10:41:57.910Z,23.33
2017-10-03T10:44:26.826Z,20.45
2017-10-03T10:46:56.516Z,19.80
2017-10-03T10:49:25.577Z,15.85
2017-10-03T10:51:55.549Z,15.55
2017-10-03T10:54:25.658Z,29.12
2017-10-03T10:56:55.426Z,20.70
2017-10-03T10:59:24.427Z,13.90
2017-10-03T11:01:54.319Z,29.15
2017-10-03T11:04:28.846Z,49.13
2017-10-03T11:06:59.887Z,31.00
2017-10-03T11:09:29.443Z,35.00
2017-10-03T11:12:01.076Z,32.50
2017-10-03T11:14:31.601Z,19.05
2017-10-03T11:17:01.251Z,14.90
2017-10-03T11:19:30.401Z,17.55
2017-10-03T11:21:59.895Z,14.50
2017-10-03T11:24:44.788Z,20.55
2017-10-03T11:27:14.439Z,16.62
2017-10-03T11:29:43.414Z,20.62
2017-10-03T11:32:12.366Z,27.55
2017-10-03T11:34:41.474Z,23.40
2017-10-03T11:37:11.243Z,64.18
2017-10-03T11:39:40.364Z,26.40
2017-10-03T11:42:09.402Z,28.98
2017-10-03T11:44:38.441Z,21.45
2017-10-03T11:47:08.095Z,16.97
2017-10-03T11:49:37.208Z,13.07
2017-10-03T11:52:06.273Z,18.90
2017-10-03T11:54:36.108Z,14.38
2017-10-03T11:57:04.995Z,21.17
2017-10-03T11:59:33.881Z,16.85
2017-10-03T12:02:02.927Z,11.45
2017-10-03T12:04:32.257Z,14.25
2017-10-03T12:07:02.034Z,9.65
2017-10-03T12:09:30.963Z,18.25
2017-10-03T12:12:00.242Z,13.75
2017-10-03T12:14:29.134Z,18.33
2017-10-03T12:16:59.417Z,12.90
2017-10-03T12:19:28.491Z,11.27
2017-10-03T12:21:57.532Z,10.70
2017-10-03T12:24:26.482Z,15.52
2017-10-03T12:26:55.411Z,8.45
2017-10-03T12:29:24.285Z,9.25
2017-10-03T12:31:53.399Z,12.43
2017-10-03T12:34:22.441Z,15.90
2017-10-03T12:36:51.295Z,11.77
2017-10-03T12:39:20.990Z,14.15
2017-10-03T12:41:49.882Z,17.90
2017-10-03T12:44:18.896Z,22.23
2017-10-03T12:46:48.757Z,13.48
2017-10-03T12:49:17.594Z,16.62
2017-10-03T12:51:47.201Z,14.07
2017-10-03T12:54:17.049Z,20.07
2017-10-03T12:56:46.053Z,36.80
2017-10-03T12:59:15.397Z,45.57
2017-10-03T13:01:45.148Z,30.43
2017-10-03T13:04:14.258Z,34.30
2017-10-03T13:06:44.048Z,21.27
2017-10-03T13:09:13.629Z,26.02
2017-10-03T13:11:42.521Z,38.50
2017-10-03T13:14:11.582Z,22.67
2017-10-03T13:16:40.760Z,23.15
2017-10-03T13:19:10.093Z,20.37
2017-10-03T13:21:40.190Z,19.40
2017-10-03T13:24:09.271Z,25.42
2017-10-03T13:26:38.430Z,29.00
2017-10-03T13:29:07.750Z,17.37
2017-10-03T13:31:36.909Z,27.37
2017-10-03T13:34:05.954Z,25.13
2017-10-03T13:36:35.248Z,23.92
2017-10-03T13:40:07.082Z,22.27
2017-10-03T13:42:36.343Z,32.70
2017-10-03T13:45:05.431Z,11.90
2017-10-03T13:47:35.360Z,56.53
2017-10-03T13:50:05.222Z,15.85
2017-10-03T13:52:34.081Z,13.45
2017-10-03T13:55:03.017Z,25.00
2017-10-03T13:57:31.939Z,28.87
2017-10-03T14:00:01.597Z,34.50
2017-10-03T14:02:30.487Z,22.35
2017-10-03T14:04:59.369Z,18.73
2017-10-03T14:07:28.475Z,14.75
2017-10-03T14:09:57.312Z,16.27
2017-10-03T14:13:56.549Z,19.52
2017-10-03T14:16:25.594Z,15.13
2017-10-03T14:18:54.645Z,19.77
2017-10-03T14:21:23.639Z,17.83
2017-10-03T14:23:52.523Z,15.82
2017-10-03T14:26:21.461Z,16.97
2017-10-03T14:28:50.539Z,19.65
2017-10-03T14:31:19.561Z,14.85
2017-10-03T14:33:49.198Z,14.97
2017-10-03T14:36:18.257Z,15.57
2017-10-03T14:38:48.156Z,15.90
2017-10-03T14:41:17.161Z,14.57
2017-10-03T14:43:46.502Z,12.23
2017-10-03T14:46:15.313Z,26.08
2017-10-03T14:48:44.175Z,12.85
2017-10-03T14:51:13.208Z,10.10
2017-10-03T14:53:42.194Z,9.20
2017-10-03T14:56:11.480Z,14.05
2017-10-03T14:58:40.318Z,15.38
2017-10-03T15:01:09.972Z,13.53
2017-10-03T15:03:39.232Z,18.65
2017-10-03T15:06:08.326Z,16.55
2017-10-03T15:08:38.070Z,10.43
2017-10-03T15:11:07.196Z,14.15
2017-10-03T15:13:36.258Z,18.83
2017-10-03T15:16:05.584Z,9.60
2017-10-03T15:18:34.581Z,20.60
2017-10-03T15:21:03.672Z,15.90
2017-10-03T15:23:32.695Z,9.43
2017-10-03T15:26:02.417Z,15.50
2017-10-03T15:28:31.685Z,12.25
2017-10-03T15:31:00.693Z,11.73
2017-10-03T15:33:30.454Z,12.77
2017-10-03T15:36:02.426Z,18.90
2017-10-03T15:38:31.350Z,20.87
2017-10-03T15:41:01.031Z,15.10
2017-10-03T15:43:30.812Z,14.60
2017-10-03T15:45:59.811Z,13.25
2017-10-03T15:48:29.206Z,7.80
2017-10-03T15:50:58.077Z,9.82
2017-10-03T15:53:26.898Z,12.32
2017-10-03T15:55:55.742Z,18.27
2017-10-03T15:58:24.618Z,12.98
2017-10-03T16:00:54.209Z,12.00
2017-10-03T16:03:23.364Z,16.40
2017-10-03T16:05:52.442Z,10.13
2017-10-03T16:08:21.503Z,13.93
2017-10-03T16:10:51.260Z,20.17
2017-10-03T16:13:20.266Z,15.68
2017-10-03T16:15:49.682Z,18.67
2017-10-03T16:18:19.005Z,33.25
2017-10-03T16:20:48.796Z,17.65
2017-10-03T16:23:17.862Z,38.00
2017-10-03T16:25:46.852Z,18.02
2017-10-03T16:28:15.903Z,15.87
2017-10-03T16:30:45.842Z,13.45
2017-10-03T16:33:14.672Z,17.65
2017-10-03T16:35:43.530Z,12.97
2017-10-03T16:38:12.851Z,26.98
2017-10-03T16:40:41.968Z,19.85
2017-10-03T16:43:10.985Z,18.12
2017-10-03T16:45:40.075Z,12.50
2017-10-03T16:48:09.139Z,25.07
2017-10-03T16:50:38.483Z,21.42
2017-10-03T16:53:07.561Z,30.20
2017-10-03T16:55:37.210Z,16.27
2017-10-03T16:58:06.018Z,21.48
2017-10-03T17:00:34.967Z,20.42
2017-10-03T17:03:04.153Z,18.40
2017-10-03T17:05:33.018Z,15.45
2017-10-03T17:08:02.597Z,19.65
2017-10-03T17:10:31.796Z,30.12
2017-10-03T17:13:00.877Z,14.70
2017-10-03T17:15:29.978Z,15.18
2017-10-03T17:17:59.060Z,20.77
2017-10-03T17:20:28.070Z,26.87
2017-10-03T17:22:57.268Z,17.95
2017-10-03T17:25:26.149Z,16.12
2017-10-03T17:30:38.087Z,23.70
2017-10-03T17:33:08.317Z,28.42
2017-10-03T17:35:38.390Z,31.57
2017-10-03T17:38:07.554Z,19.83
2017-10-03T17:40:36.747Z,18.52
2017-10-03T17:43:05.877Z,15.60
2017-10-03T17:45:34.907Z,25.67
2017-10-03T17:48:04.991Z,24.90
2017-10-03T17:50:34.025Z,19.27
2017-10-03T17:53:03.785Z,21.80
2017-10-03T17:55:33.183Z,14.30
2017-10-03T17:58:02.939Z,17.15
2017-10-03T18:00:32.747Z,18.02
2017-10-03T18:03:03.596Z,29.43
2017-10-03T18:05:34.343Z,26.65
2017-10-03T18:08:04.536Z,22.30
2017-10-03T18:10:34.198Z,24.57
2017-10-03T18:13:04.690Z,23.45
2017-10-03T18:15:35.501Z,19.83
2017-10-03T18:18:06.506Z,26.00
2017-10-03T18:20:35.958Z,28.42
2017-10-03T18:23:06.137Z,27.60
2017-10-03T18:25:35.611Z,19.25
2017-10-03T18:28:05.055Z,25.33
2017-10-03T18:30:34.761Z,20.42
2017-10-03T18:33:05.302Z,19.55
2017-10-03T18:40:10.282Z,18.50
2017-10-03T18:42:40.739Z,22.20
2017-10-03T18:45:10.485Z,23.80
2017-10-03T18:47:39.962Z,19.33
2017-10-03T18:50:10.175Z,21.70
2017-10-03T18:52:40.679Z,16.33
2017-10-03T18:55:10.548Z,18.53
2017-10-03T18:57:40.737Z,16.15
2017-10-03T19:00:10.849Z,27.23
2017-10-03T19:02:40.275Z,17.02
2017-10-03T19:05:11.351Z,17.75
2017-10-03T19:07:41.448Z,18.70
2017-10-03T19:10:10.936Z,19.27
2017-10-03T19:12:40.222Z,21.23
2017-10-03T19:15:10.184Z,16.33
2017-10-03T19:17:40.596Z,19.27
2017-10-03T19:20:09.916Z,75.57
2017-10-03T19:22:40.101Z,26.50
2017-10-03T19:25:09.580Z,20.70
2017-10-03T19:27:39.225Z,17.48
2017-10-03T19:30:09.463Z,17.87
2017-10-03T19:32:39.903Z,18.80
2017-10-03T19:35:10.129Z,111.03
2017-10-03T19:37:39.814Z,31.42
2017-10-03T19:40:09.258Z,28.07
2017-10-03T19:42:38.589Z,27.27
2017-10-03T19:45:08.148Z,22.60
2017-10-03T19:47:37.637Z,20.23
2017-10-03T19:50:08.471Z,22.62
2017-10-03T19:52:38.385Z,34.03
2017-10-03T19:55:08.590Z,23.77
2017-10-03T19:57:38.145Z,18.48
2017-10-03T20:00:07.219Z,23.00
2017-10-03T20:02:36.376Z,20.80
2017-10-03T20:05:05.820Z,21.48
2017-10-03T20:07:35.066Z,21.05
2017-10-03T20:10:04.230Z,27.73
2017-10-03T20:12:33.391Z,16.55
2017-10-03T20:15:03.573Z,23.55
2017-10-03T20:17:33.113Z,23.42
2017-10-03T20:20:02.371Z,27.95
2017-10-03T20:22:31.679Z,21.15
2017-10-03T20:25:00.847Z,17.35
2017-10-03T20:27:29.991Z,16.05
2017-10-03T20:29:59.391Z,36.15
2017-10-03T20:32:29.347Z,20.67
2017-10-03T20:34:58.611Z,22.73
2017-10-03T20:37:28.780Z,18.97
2017-10-03T20:39:57.910Z,26.53
2017-10-03T20:42:27.170Z,19.50
2017-10-03T20:44:56.375Z,21.08
2017-10-03T20:47:25.613Z,18.60
2017-10-03T20:49:55.934Z,21.83
2017-10-03T20:52:25.170Z,23.95
2017-10-03T20:54:54.414Z,20.40
2017-10-03T20:57:24.826Z,18.75
2017-10-03T20:59:53.865Z,19.85
2017-10-03T21:02:23.817Z,22.92
2017-10-03T21:04:52.850Z,21.67
2017-10-03T21:07:21.837Z,23.90
2017-10-03T21:09:50.881Z,20.42
2017-10-03T21:12:19.920Z,19.70
2017-10-03T21:14:48.973Z,24.10
2017-10-03T21:17:17.801Z,26.70
2017-10-03T21:19:46.916Z,22.27
2017-10-03T21:22:16.503Z,24.03
2017-10-03T21:24:46.158Z,67.05
2017-10-03T21:27:15.233Z,25.70
2017-10-03T21:29:45.065Z,22.60
2017-10-03T21:32:14.380Z,21.27
2017-10-03T21:34:43.338Z,26.93
2017-10-03T21:37:13.186Z,24.73
2017-10-03T21:39:42.205Z,24.58
2017-10-03T21:42:19.944Z,26.17
2017-10-03T21:44:48.754Z,20.08
2017-10-03T21:47:17.796Z,23.10
2017-10-03T21:49:46.642Z,24.87
2017-10-03T21:52:15.529Z,23.43
2017-10-03T21:54:44.425Z,31.70
2017-10-03T21:57:13.480Z,22.95
2017-10-03T21:59:43.228Z,21.73
2017-10-03T22:02:12.481Z,25.88
2017-10-03T22:04:42.084Z,15.32
2017-10-03T22:07:11.717Z,21.62
2017-10-03T22:09:40.541Z,24.60
2017-10-03T22:12:09.340Z,22.13
2017-10-03T22:14:38.424Z,26.60
2017-10-03T22:17:07.210Z,74.28
2017-10-03T22:19:36.166Z,22.50
2017-10-03T22:22:04.959Z,30.07
2017-10-03T22:24:33.840Z,117.13
2017-10-03T22:27:02.742Z,43.90
2017-10-03T22:29:31.513Z,24.67
2017-10-03T22:32:00.565Z,26.13
2017-10-03T22:34:29.667Z,29.53
2017-10-03T22:36:58.537Z,27.90
2017-10-03T22:39:27.354Z,19.87
2017-10-03T22:41:56.957Z,28.60
2017-10-03T22:44:26.953Z,28.70
2017-10-03T22:46:55.896Z,15.18
2017-10-03T22:49:28.177Z,18.58
2017-10-03T22:52:01.365Z,25.37
2017-10-03T22:54:30.397Z,22.60
2017-10-03T22:56:59.366Z,25.07
2017-10-03T22:59:28.257Z,24.85
2017-10-03T23:01:57.222Z,24.15
2017-10-03T23:04:26.370Z,25.30
2017-10-03T23:06:55.184Z,18.70
2017-10-03T23:09:24.810Z,24.20
2017-10-03T23:11:53.657Z,21.00
2017-10-03T23:14:22.500Z,24.77
2017-10-03T23:16:51.553Z,20.75
2017-10-03T23:19:21.116Z,30.25
2017-10-03T23:21:49.896Z,26.00
2017-10-03T23:24:18.785Z,21.20
2017-10-03T23:26:47.653Z,14.35
2017-10-03T23:29:16.709Z,26.50
2017-10-03T23:31:46.361Z,21.57
2017-10-03T23:34:15.228Z,27.50
2017-10-03T23:36:44.474Z,20.23
2017-10-03T23:39:13.422Z,21.27
2017-10-03T23:41:42.410Z,22.83
2017-10-03T23:44:11.195Z,20.70
2017-10-03T23:46:40.069Z,17.85
2017-10-03T23:49:09.865Z,20.77
2017-10-03T23:51:39.643Z,20.60
2017-10-03T23:54:08.635Z,18.08
2017-10-03T23:56:37.842Z,19.57
2017-10-03T23:59:06.850Z,16.50
